Terminal Aerodrome Forecast
Issued by NWS Shreveport, LA

Home | Current Version | Previous Version | Text Only | Print | Product List | Glossary On
Versions: 1 2 3 4 5 6 7 8 9 10 11 12 13 14 15 16 17 18 19
000
FTUS44 KSHV 300500
TAFLFK
TAF
KLFK 300537Z 3006/3106 35007KT P6SM BKN250
     FM301600 07009KT P6SM BKN250
     FM310100 09004KT P6SM SCT150 OVC200=

USA.gov is the U.S. government's official web portal to all federal, state and local government web resources and services.